sensor_id;sensor_type;location;lat;lon;timestamp;P1;durP1;ratioP1;P2;durP2;ratioP2
51927;SDS011;37953;52.806;18.270;2022-07-22T00:01:38;12.50;;;8.60;;
51927;SDS011;37953;52.806;18.270;2022-07-22T00:04:04;12.43;;;8.88;;
51927;SDS011;37953;52.806;18.270;2022-07-22T00:06:30;12.77;;;9.13;;
51927;SDS011;37953;52.806;18.270;2022-07-22T00:08:56;11.20;;;8.40;;
51927;SDS011;37953;52.806;18.270;2022-07-22T00:11:23;13.90;;;8.88;;
51927;SDS011;37953;52.806;18.270;2022-07-22T00:13:49;17.02;;;8.60;;
51927;SDS011;37953;52.806;18.270;2022-07-22T00:16:15;15.13;;;8.77;;
51927;SDS011;37953;52.806;18.270;2022-07-22T00:18:41;13.90;;;9.00;;
51927;SDS011;37953;52.806;18.270;2022-07-22T00:21:07;14.88;;;8.30;;
51927;SDS011;37953;52.806;18.270;2022-07-22T00:23:33;13.63;;;8.52;;
51927;SDS011;37953;52.806;18.270;2022-07-22T00:25:59;12.88;;;8.13;;
51927;SDS011;37953;52.806;18.270;2022-07-22T00:28:25;14.82;;;7.72;;
51927;SDS011;37953;52.806;18.270;2022-07-22T00:30:50;14.48;;;7.60;;
51927;SDS011;37953;52.806;18.270;2022-07-22T00:33:17;17.20;;;8.52;;
51927;SDS011;37953;52.806;18.270;2022-07-22T00:35:42;14.23;;;8.18;;
51927;SDS011;37953;52.806;18.270;2022-07-22T00:38:09;15.27;;;7.97;;
51927;SDS011;37953;52.806;18.270;2022-07-22T00:40:35;15.40;;;8.38;;
51927;SDS011;37953;52.806;18.270;2022-07-22T00:43:01;13.90;;;8.70;;
51927;SDS011;37953;52.806;18.270;2022-07-22T00:45:27;14.23;;;8.77;;
51927;SDS011;37953;52.806;18.270;2022-07-22T00:47:53;17.85;;;8.93;;
51927;SDS011;37953;52.806;18.270;2022-07-22T00:50:19;17.17;;;9.13;;
51927;SDS011;37953;52.806;18.270;2022-07-22T00:52:46;17.20;;;9.07;;
51927;SDS011;37953;52.806;18.270;2022-07-22T00:55:13;14.52;;;8.70;;
51927;SDS011;37953;52.806;18.270;2022-07-22T00:57:39;13.98;;;8.73;;
51927;SDS011;37953;52.806;18.270;2022-07-22T01:00:07;13.80;;;9.02;;
51927;SDS011;37953;52.806;18.270;2022-07-22T01:02:36;13.52;;;8.90;;
51927;SDS011;37953;52.806;18.270;2022-07-22T01:05:02;12.48;;;8.93;;
51927;SDS011;37953;52.806;18.270;2022-07-22T01:07:28;12.95;;;8.88;;
51927;SDS011;37953;52.806;18.270;2022-07-22T01:09:54;13.60;;;8.98;;
51927;SDS011;37953;52.806;18.270;2022-07-22T01:12:20;18.42;;;9.32;;
51927;SDS011;37953;52.806;18.270;2022-07-22T01:14:46;15.75;;;9.65;;
51927;SDS011;37953;52.806;18.270;2022-07-22T01:17:12;14.85;;;9.18;;
51927;SDS011;37953;52.806;18.270;2022-07-22T01:19:38;12.30;;;8.70;;
51927;SDS011;37953;52.806;18.270;2022-07-22T01:22:04;13.73;;;8.90;;
51927;SDS011;37953;52.806;18.270;2022-07-22T01:24:31;14.98;;;9.55;;
51927;SDS011;37953;52.806;18.270;2022-07-22T01:26:57;14.70;;;9.68;;
51927;SDS011;37953;52.806;18.270;2022-07-22T01:29:23;14.10;;;8.95;;
51927;SDS011;37953;52.806;18.270;2022-07-22T01:31:49;15.20;;;8.60;;
51927;SDS011;37953;52.806;18.270;2022-07-22T01:34:15;14.65;;;8.82;;
51927;SDS011;37953;52.806;18.270;2022-07-22T01:36:41;14.82;;;9.02;;
51927;SDS011;37953;52.806;18.270;2022-07-22T01:39:07;17.27;;;8.27;;
51927;SDS011;37953;52.806;18.270;2022-07-22T01:41:33;13.57;;;8.63;;
51927;SDS011;37953;52.806;18.270;2022-07-22T01:43:59;14.18;;;8.32;;
51927;SDS011;37953;52.806;18.270;2022-07-22T01:46:26;15.98;;;9.32;;
51927;SDS011;37953;52.806;18.270;2022-07-22T01:48:52;15.57;;;9.77;;
51927;SDS011;37953;52.806;18.270;2022-07-22T01:51:18;18.05;;;9.93;;
51927;SDS011;37953;52.806;18.270;2022-07-22T01:53:44;15.52;;;9.60;;
51927;SDS011;37953;52.806;18.270;2022-07-22T01:56:10;14.15;;;9.40;;
51927;SDS011;37953;52.806;18.270;2022-07-22T01:58:36;13.52;;;9.48;;
51927;SDS011;37953;52.806;18.270;2022-07-22T02:01:02;15.70;;;9.88;;
51927;SDS011;37953;52.806;18.270;2022-07-22T02:03:28;15.73;;;9.30;;
51927;SDS011;37953;52.806;18.270;2022-07-22T02:05:54;14.77;;;10.25;;
51927;SDS011;37953;52.806;18.270;2022-07-22T02:08:20;14.80;;;9.95;;
51927;SDS011;37953;52.806;18.270;2022-07-22T02:10:47;13.43;;;9.88;;
51927;SDS011;37953;52.806;18.270;2022-07-22T02:13:13;15.57;;;11.18;;
51927;SDS011;37953;52.806;18.270;2022-07-22T02:15:39;17.15;;;10.85;;
51927;SDS011;37953;52.806;18.270;2022-07-22T02:18:12;15.30;;;10.88;;
51927;SDS011;37953;52.806;18.270;2022-07-22T02:20:39;18.40;;;10.18;;
51927;SDS011;37953;52.806;18.270;2022-07-22T02:23:05;14.18;;;10.00;;
51927;SDS011;37953;52.806;18.270;2022-07-22T02:25:31;18.30;;;10.35;;
51927;SDS011;37953;52.806;18.270;2022-07-22T02:27:57;16.92;;;10.23;;
51927;SDS011;37953;52.806;18.270;2022-07-22T02:30:23;19.95;;;10.02;;
51927;SDS011;37953;52.806;18.270;2022-07-22T02:32:49;19.25;;;10.10;;
51927;SDS011;37953;52.806;18.270;2022-07-22T02:35:15;16.80;;;10.45;;
51927;SDS011;37953;52.806;18.270;2022-07-22T02:37:41;18.13;;;10.30;;
51927;SDS011;37953;52.806;18.270;2022-07-22T02:40:07;18.95;;;10.18;;
51927;SDS011;37953;52.806;18.270;2022-07-22T02:42:33;16.65;;;10.20;;
51927;SDS011;37953;52.806;18.270;2022-07-22T02:45:00;13.80;;;9.68;;
51927;SDS011;37953;52.806;18.270;2022-07-22T02:47:26;16.60;;;9.70;;
51927;SDS011;37953;52.806;18.270;2022-07-22T02:49:52;15.75;;;10.20;;
51927;SDS011;37953;52.806;18.270;2022-07-22T02:52:18;15.05;;;10.38;;
51927;SDS011;37953;52.806;18.270;2022-07-22T02:54:44;20.08;;;10.80;;
51927;SDS011;37953;52.806;18.270;2022-07-22T02:57:10;16.60;;;11.13;;
51927;SDS011;37953;52.806;18.270;2022-07-22T02:59:36;18.30;;;12.45;;
51927;SDS011;37953;52.806;18.270;2022-07-22T03:02:02;19.08;;;12.27;;
51927;SDS011;37953;52.806;18.270;2022-07-22T03:04:28;20.63;;;11.65;;
51927;SDS011;37953;52.806;18.270;2022-07-22T03:06:54;17.25;;;11.77;;
51927;SDS011;37953;52.806;18.270;2022-07-22T03:09:20;19.27;;;11.32;;
51927;SDS011;37953;52.806;18.270;2022-07-22T03:11:46;17.38;;;10.77;;
51927;SDS011;37953;52.806;18.270;2022-07-22T03:14:12;12.93;;;10.15;;
51927;SDS011;37953;52.806;18.270;2022-07-22T03:16:39;16.23;;;10.90;;
51927;SDS011;37953;52.806;18.270;2022-07-22T03:19:05;20.90;;;10.73;;
51927;SDS011;37953;52.806;18.270;2022-07-22T03:21:31;17.27;;;10.98;;
51927;SDS011;37953;52.806;18.270;2022-07-22T03:23:57;17.90;;;10.93;;
51927;SDS011;37953;52.806;18.270;2022-07-22T03:26:23;15.70;;;11.30;;
51927;SDS011;37953;52.806;18.270;2022-07-22T03:28:49;19.63;;;12.50;;
51927;SDS011;37953;52.806;18.270;2022-07-22T03:31:15;21.48;;;15.15;;
51927;SDS011;37953;52.806;18.270;2022-07-22T03:33:41;22.75;;;16.13;;
51927;SDS011;37953;52.806;18.270;2022-07-22T03:38:38;18.15;;;12.45;;
51927;SDS011;37953;52.806;18.270;2022-07-22T03:41:04;17.92;;;11.40;;
51927;SDS011;37953;52.806;18.270;2022-07-22T03:43:30;18.98;;;11.77;;
51927;SDS011;37953;52.806;18.270;2022-07-22T03:45:56;21.23;;;12.52;;
51927;SDS011;37953;52.806;18.270;2022-07-22T03:48:22;22.45;;;12.48;;
51927;SDS011;37953;52.806;18.270;2022-07-22T03:50:48;17.80;;;11.98;;
51927;SDS011;37953;52.806;18.270;2022-07-22T03:53:17;20.35;;;12.27;;
51927;SDS011;37953;52.806;18.270;2022-07-22T03:55:43;20.33;;;12.93;;
51927;SDS011;37953;52.806;18.270;2022-07-22T03:58:09;19.42;;;12.40;;
51927;SDS011;37953;52.806;18.270;2022-07-22T04:00:34;22.05;;;12.80;;
51927;SDS011;37953;52.806;18.270;2022-07-22T04:03:00;21.55;;;13.35;;
51927;SDS011;37953;52.806;18.270;2022-07-22T04:05:26;19.23;;;11.75;;
51927;SDS011;37953;52.806;18.270;2022-07-22T04:07:52;20.73;;;11.95;;
51927;SDS011;37953;52.806;18.270;2022-07-22T04:10:18;20.63;;;12.38;;
51927;SDS011;37953;52.806;18.270;2022-07-22T04:12:44;20.05;;;12.63;;
51927;SDS011;37953;52.806;18.270;2022-07-22T04:15:10;22.90;;;12.63;;
51927;SDS011;37953;52.806;18.270;2022-07-22T04:17:39;19.42;;;12.18;;
51927;SDS011;37953;52.806;18.270;2022-07-22T04:20:05;17.80;;;12.25;;
51927;SDS011;37953;52.806;18.270;2022-07-22T04:22:31;17.80;;;12.57;;
51927;SDS011;37953;52.806;18.270;2022-07-22T04:24:57;26.23;;;12.57;;
51927;SDS011;37953;52.806;18.270;2022-07-22T04:27:23;23.17;;;11.90;;
51927;SDS011;37953;52.806;18.270;2022-07-22T04:29:49;21.55;;;11.38;;
51927;SDS011;37953;52.806;18.270;2022-07-22T04:32:15;20.90;;;11.85;;
51927;SDS011;37953;52.806;18.270;2022-07-22T04:34:41;18.67;;;11.85;;
51927;SDS011;37953;52.806;18.270;2022-07-22T04:37:07;20.45;;;12.38;;
51927;SDS011;37953;52.806;18.270;2022-07-22T04:39:33;20.83;;;11.68;;
51927;SDS011;37953;52.806;18.270;2022-07-22T04:41:59;21.00;;;12.02;;
51927;SDS011;37953;52.806;18.270;2022-07-22T04:44:25;23.50;;;13.07;;
51927;SDS011;37953;52.806;18.270;2022-07-22T04:46:51;19.88;;;12.80;;
51927;SDS011;37953;52.806;18.270;2022-07-22T04:49:17;19.20;;;11.75;;
51927;SDS011;37953;52.806;18.270;2022-07-22T04:51:42;21.10;;;11.73;;
51927;SDS011;37953;52.806;18.270;2022-07-22T04:54:08;17.85;;;11.65;;
51927;SDS011;37953;52.806;18.270;2022-07-22T04:56:34;20.88;;;12.85;;
51927;SDS011;37953;52.806;18.270;2022-07-22T04:59:00;17.35;;;12.45;;
51927;SDS011;37953;52.806;18.270;2022-07-22T05:01:26;19.38;;;12.93;;
51927;SDS011;37953;52.806;18.270;2022-07-22T05:03:52;18.13;;;12.65;;
51927;SDS011;37953;52.806;18.270;2022-07-22T05:06:18;22.02;;;12.75;;
51927;SDS011;37953;52.806;18.270;2022-07-22T05:08:44;18.25;;;11.80;;
51927;SDS011;37953;52.806;18.270;2022-07-22T05:11:10;19.60;;;12.32;;
51927;SDS011;37953;52.806;18.270;2022-07-22T05:13:37;15.90;;;11.15;;
51927;SDS011;37953;52.806;18.270;2022-07-22T05:16:03;16.88;;;11.55;;
51927;SDS011;37953;52.806;18.270;2022-07-22T05:18:30;19.02;;;11.45;;
51927;SDS011;37953;52.806;18.270;2022-07-22T05:20:56;16.27;;;11.63;;
51927;SDS011;37953;52.806;18.270;2022-07-22T05:23:22;21.50;;;11.85;;
51927;SDS011;37953;52.806;18.270;2022-07-22T05:25:48;17.70;;;11.98;;
51927;SDS011;37953;52.806;18.270;2022-07-22T05:28:14;15.95;;;11.68;;
51927;SDS011;37953;52.806;18.270;2022-07-22T05:30:40;18.45;;;11.02;;
51927;SDS011;37953;52.806;18.270;2022-07-22T05:33:06;17.30;;;11.23;;
51927;SDS011;37953;52.806;18.270;2022-07-22T05:35:32;18.25;;;11.48;;
51927;SDS011;37953;52.806;18.270;2022-07-22T05:37:58;19.20;;;11.88;;
51927;SDS011;37953;52.806;18.270;2022-07-22T05:40:24;21.83;;;11.07;;
51927;SDS011;37953;52.806;18.270;2022-07-22T05:42:50;24.20;;;11.35;;
51927;SDS011;37953;52.806;18.270;2022-07-22T05:45:16;17.75;;;11.05;;
51927;SDS011;37953;52.806;18.270;2022-07-22T05:47:41;16.52;;;11.25;;
51927;SDS011;37953;52.806;18.270;2022-07-22T05:50:07;15.80;;;10.07;;
51927;SDS011;37953;52.806;18.270;2022-07-22T05:52:37;18.83;;;10.82;;
51927;SDS011;37953;52.806;18.270;2022-07-22T05:55:07;13.55;;;9.25;;
51927;SDS011;37953;52.806;18.270;2022-07-22T05:57:35;12.02;;;9.18;;
51927;SDS011;37953;52.806;18.270;2022-07-22T06:00:03;18.13;;;8.60;;
51927;SDS011;37953;52.806;18.270;2022-07-22T06:02:35;11.88;;;7.45;;
51927;SDS011;37953;52.806;18.270;2022-07-22T06:05:01;18.42;;;7.80;;
51927;SDS011;37953;52.806;18.270;2022-07-22T06:07:27;13.65;;;7.68;;
51927;SDS011;37953;52.806;18.270;2022-07-22T06:09:53;14.00;;;7.63;;
51927;SDS011;37953;52.806;18.270;2022-07-22T06:12:19;14.18;;;7.80;;
51927;SDS011;37953;52.806;18.270;2022-07-22T06:14:45;12.80;;;8.00;;
51927;SDS011;37953;52.806;18.270;2022-07-22T06:17:12;15.65;;;8.27;;
51927;SDS011;37953;52.806;18.270;2022-07-22T06:19:38;13.85;;;8.85;;
51927;SDS011;37953;52.806;18.270;2022-07-22T06:22:05;17.40;;;8.65;;
51927;SDS011;37953;52.806;18.270;2022-07-22T06:24:30;15.57;;;8.52;;
51927;SDS011;37953;52.806;18.270;2022-07-22T06:26:57;16.70;;;9.00;;
51927;SDS011;37953;52.806;18.270;2022-07-22T06:29:22;17.30;;;11.52;;
51927;SDS011;37953;52.806;18.270;2022-07-22T06:31:48;17.80;;;11.90;;
51927;SDS011;37953;52.806;18.270;2022-07-22T06:34:14;17.80;;;10.23;;
51927;SDS011;37953;52.806;18.270;2022-07-22T06:36:40;15.63;;;9.77;;
51927;SDS011;37953;52.806;18.270;2022-07-22T06:39:06;14.95;;;8.98;;
51927;SDS011;37953;52.806;18.270;2022-07-22T06:41:32;17.83;;;9.20;;
51927;SDS011;37953;52.806;18.270;2022-07-22T06:43:58;16.35;;;11.15;;
51927;SDS011;37953;52.806;18.270;2022-07-22T06:46:24;17.77;;;11.32;;
51927;SDS011;37953;52.806;18.270;2022-07-22T06:48:50;15.23;;;9.23;;
51927;SDS011;37953;52.806;18.270;2022-07-22T06:51:16;14.43;;;7.63;;
51927;SDS011;37953;52.806;18.270;2022-07-22T06:53:41;9.57;;;7.30;;
51927;SDS011;37953;52.806;18.270;2022-07-22T06:56:07;11.90;;;6.55;;
51927;SDS011;37953;52.806;18.270;2022-07-22T06:58:33;12.52;;;6.53;;
51927;SDS011;37953;52.806;18.270;2022-07-22T07:00:59;16.63;;;6.72;;
51927;SDS011;37953;52.806;18.270;2022-07-22T07:03:25;11.18;;;6.70;;
51927;SDS011;37953;52.806;18.270;2022-07-22T07:05:51;10.55;;;6.85;;
51927;SDS011;37953;52.806;18.270;2022-07-22T07:08:18;9.35;;;5.93;;
51927;SDS011;37953;52.806;18.270;2022-07-22T07:10:44;8.43;;;6.05;;
51927;SDS011;37953;52.806;18.270;2022-07-22T07:13:10;10.50;;;6.25;;
51927;SDS011;37953;52.806;18.270;2022-07-22T07:15:36;9.80;;;5.68;;
51927;SDS011;37953;52.806;18.270;2022-07-22T07:18:02;10.98;;;6.07;;
51927;SDS011;37953;52.806;18.270;2022-07-22T07:20:28;10.68;;;6.32;;
51927;SDS011;37953;52.806;18.270;2022-07-22T07:22:54;12.07;;;6.75;;
51927;SDS011;37953;52.806;18.270;2022-07-22T07:25:21;8.90;;;6.15;;
51927;SDS011;37953;52.806;18.270;2022-07-22T07:27:47;9.73;;;5.82;;
51927;SDS011;37953;52.806;18.270;2022-07-22T07:30:13;8.75;;;5.93;;
51927;SDS011;37953;52.806;18.270;2022-07-22T07:32:39;9.13;;;6.50;;
51927;SDS011;37953;52.806;18.270;2022-07-22T07:35:05;8.18;;;5.38;;
51927;SDS011;37953;52.806;18.270;2022-07-22T07:37:32;8.10;;;4.43;;
51927;SDS011;37953;52.806;18.270;2022-07-22T07:39:58;7.38;;;4.90;;
51927;SDS011;37953;52.806;18.270;2022-07-22T07:42:25;7.53;;;4.50;;
51927;SDS011;37953;52.806;18.270;2022-07-22T07:44:51;7.60;;;4.82;;
51927;SDS011;37953;52.806;18.270;2022-07-22T07:47:18;8.00;;;4.30;;
51927;SDS011;37953;52.806;18.270;2022-07-22T07:49:48;6.00;;;3.97;;
51927;SDS011;37953;52.806;18.270;2022-07-22T07:52:22;5.60;;;4.10;;
51927;SDS011;37953;52.806;18.270;2022-07-22T07:54:48;7.13;;;4.10;;
51927;SDS011;37953;52.806;18.270;2022-07-22T07:57:14;5.78;;;3.67;;
51927;SDS011;37953;52.806;18.270;2022-07-22T07:59:40;5.63;;;3.95;;
51927;SDS011;37953;52.806;18.270;2022-07-22T08:02:07;4.47;;;3.47;;
51927;SDS011;37953;52.806;18.270;2022-07-22T08:04:34;4.78;;;3.60;;
51927;SDS011;37953;52.806;18.270;2022-07-22T08:07:02;5.00;;;3.92;;
51927;SDS011;37953;52.806;18.270;2022-07-22T08:09:29;4.45;;;3.65;;
51927;SDS011;37953;52.806;18.270;2022-07-22T08:11:55;7.15;;;4.00;;
51927;SDS011;37953;52.806;18.270;2022-07-22T08:14:21;8.70;;;4.10;;
51927;SDS011;37953;52.806;18.270;2022-07-22T08:16:49;6.82;;;4.68;;
51927;SDS011;37953;52.806;18.270;2022-07-22T08:19:15;7.38;;;4.55;;
51927;SDS011;37953;52.806;18.270;2022-07-22T08:21:41;7.85;;;4.50;;
51927;SDS011;37953;52.806;18.270;2022-07-22T08:24:08;6.95;;;4.88;;
51927;SDS011;37953;52.806;18.270;2022-07-22T08:26:35;8.65;;;4.50;;
51927;SDS011;37953;52.806;18.270;2022-07-22T08:29:02;8.27;;;4.30;;
51927;SDS011;37953;52.806;18.270;2022-07-22T08:31:29;4.90;;;3.80;;
51927;SDS011;37953;52.806;18.270;2022-07-22T08:34:00;5.95;;;3.88;;
51927;SDS011;37953;52.806;18.270;2022-07-22T08:38:55;4.80;;;3.88;;
51927;SDS011;37953;52.806;18.270;2022-07-22T08:41:21;5.60;;;3.85;;
51927;SDS011;37953;52.806;18.270;2022-07-22T08:43:48;8.57;;;4.35;;
51927;SDS011;37953;52.806;18.270;2022-07-22T08:46:15;6.25;;;4.45;;
51927;SDS011;37953;52.806;18.270;2022-07-22T08:48:41;6.20;;;4.43;;
51927;SDS011;37953;52.806;18.270;2022-07-22T08:51:07;6.97;;;4.72;;
51927;SDS011;37953;52.806;18.270;2022-07-22T08:53:33;9.98;;;4.97;;
51927;SDS011;37953;52.806;18.270;2022-07-22T08:55:59;9.13;;;5.10;;
51927;SDS011;37953;52.806;18.270;2022-07-22T08:58:26;11.30;;;5.28;;
51927;SDS011;37953;52.806;18.270;2022-07-22T09:03:45;8.98;;;4.75;;
51927;SDS011;37953;52.806;18.270;2022-07-22T09:06:24;7.25;;;4.60;;
51927;SDS011;37953;52.806;18.270;2022-07-22T09:08:56;8.40;;;4.60;;
51927;SDS011;37953;52.806;18.270;2022-07-22T09:11:24;10.05;;;4.50;;
51927;SDS011;37953;52.806;18.270;2022-07-22T09:13:53;8.02;;;4.80;;
51927;SDS011;37953;52.806;18.270;2022-07-22T09:19:05;6.45;;;3.83;;
51927;SDS011;37953;52.806;18.270;2022-07-22T09:21:31;6.32;;;4.20;;
51927;SDS011;37953;52.806;18.270;2022-07-22T09:23:57;7.40;;;4.10;;
51927;SDS011;37953;52.806;18.270;2022-07-22T09:28:58;5.35;;;3.88;;
51927;SDS011;37953;52.806;18.270;2022-07-22T09:31:28;7.63;;;3.80;;
51927;SDS011;37953;52.806;18.270;2022-07-22T09:34:02;5.10;;;3.65;;
51927;SDS011;37953;52.806;18.270;2022-07-22T09:39:02;6.68;;;4.03;;
51927;SDS011;37953;52.806;18.270;2022-07-22T09:41:59;5.65;;;3.85;;
51927;SDS011;37953;52.806;18.270;2022-07-22T09:44:26;5.68;;;4.22;;
51927;SDS011;37953;52.806;18.270;2022-07-22T09:46:52;4.40;;;3.75;;
51927;SDS011;37953;52.806;18.270;2022-07-22T09:49:37;8.20;;;4.10;;
51927;SDS011;37953;52.806;18.270;2022-07-22T09:54:37;5.00;;;4.15;;
51927;SDS011;37953;52.806;18.270;2022-07-22T09:57:04;5.25;;;4.10;;
51927;SDS011;37953;52.806;18.270;2022-07-22T09:59:30;9.13;;;4.40;;
51927;SDS011;37953;52.806;18.270;2022-07-22T10:01:57;4.35;;;3.88;;
51927;SDS011;37953;52.806;18.270;2022-07-22T10:04:28;5.47;;;3.80;;
51927;SDS011;37953;52.806;18.270;2022-07-22T10:07:01;4.80;;;4.03;;
51927;SDS011;37953;52.806;18.270;2022-07-22T10:09:27;5.95;;;4.20;;
51927;SDS011;37953;52.806;18.270;2022-07-22T10:11:55;7.28;;;4.50;;
51927;SDS011;37953;52.806;18.270;2022-07-22T10:14:21;5.65;;;4.28;;
51927;SDS011;37953;52.806;18.270;2022-07-22T10:16:49;7.88;;;4.70;;
51927;SDS011;37953;52.806;18.270;2022-07-22T10:19:21;5.93;;;4.40;;
51927;SDS011;37953;52.806;18.270;2022-07-22T10:21:47;6.10;;;4.05;;
51927;SDS011;37953;52.806;18.270;2022-07-22T10:24:13;5.72;;;4.10;;
51927;SDS011;37953;52.806;18.270;2022-07-22T10:26:48;7.18;;;4.35;;
51927;SDS011;37953;52.806;18.270;2022-07-22T10:34:42;6.03;;;3.78;;
51927;SDS011;37953;52.806;18.270;2022-07-22T10:45:32;4.97;;;3.70;;
51927;SDS011;37953;52.806;18.270;2022-07-22T10:48:01;4.95;;;3.78;;
51927;SDS011;37953;52.806;18.270;2022-07-22T10:53:20;6.47;;;3.95;;
51927;SDS011;37953;52.806;18.270;2022-07-22T10:56:16;4.40;;;3.97;;
51927;SDS011;37953;52.806;18.270;2022-07-22T10:59:10;5.63;;;3.70;;
51927;SDS011;37953;52.806;18.270;2022-07-22T11:01:44;7.28;;;3.90;;
51927;SDS011;37953;52.806;18.270;2022-07-22T11:06:48;6.45;;;3.58;;
51927;SDS011;37953;52.806;18.270;2022-07-22T11:09:17;7.32;;;3.60;;
51927;SDS011;37953;52.806;18.270;2022-07-22T11:11:45;4.75;;;3.58;;
51927;SDS011;37953;52.806;18.270;2022-07-22T11:14:12;5.05;;;3.45;;
51927;SDS011;37953;52.806;18.270;2022-07-22T11:16:44;7.38;;;4.60;;
51927;SDS011;37953;52.806;18.270;2022-07-22T11:19:23;5.80;;;4.13;;
51927;SDS011;37953;52.806;18.270;2022-07-22T11:21:52;7.68;;;4.38;;
51927;SDS011;37953;52.806;18.270;2022-07-22T11:24:20;7.05;;;3.55;;
51927;SDS011;37953;52.806;18.270;2022-07-22T11:26:48;4.38;;;3.22;;
51927;SDS011;37953;52.806;18.270;2022-07-22T11:31:59;5.15;;;4.32;;
51927;SDS011;37953;52.806;18.270;2022-07-22T11:34:26;8.23;;;4.90;;
51927;SDS011;37953;52.806;18.270;2022-07-22T11:36:53;6.88;;;4.35;;
51927;SDS011;37953;52.806;18.270;2022-07-22T11:39:28;6.80;;;4.22;;
51927;SDS011;37953;52.806;18.270;2022-07-22T11:41:56;9.10;;;4.13;;
51927;SDS011;37953;52.806;18.270;2022-07-22T11:44:29;6.32;;;4.25;;
51927;SDS011;37953;52.806;18.270;2022-07-22T11:46:57;4.57;;;3.85;;
51927;SDS011;37953;52.806;18.270;2022-07-22T11:49:24;4.68;;;3.90;;
51927;SDS011;37953;52.806;18.270;2022-07-22T11:51:51;7.15;;;3.85;;
51927;SDS011;37953;52.806;18.270;2022-07-22T11:54:17;5.75;;;3.47;;
51927;SDS011;37953;52.806;18.270;2022-07-22T11:56:44;7.38;;;4.13;;
51927;SDS011;37953;52.806;18.270;2022-07-22T11:59:13;7.18;;;3.90;;
51927;SDS011;37953;52.806;18.270;2022-07-22T12:01:41;6.07;;;3.97;;
51927;SDS011;37953;52.806;18.270;2022-07-22T12:04:08;6.57;;;3.90;;
51927;SDS011;37953;52.806;18.270;2022-07-22T12:06:54;5.68;;;3.75;;
51927;SDS011;37953;52.806;18.270;2022-07-22T12:09:23;6.95;;;3.88;;
51927;SDS011;37953;52.806;18.270;2022-07-22T12:11:56;8.00;;;4.90;;
51927;SDS011;37953;52.806;18.270;2022-07-22T12:14:27;7.13;;;4.60;;
51927;SDS011;37953;52.806;18.270;2022-07-22T12:16:58;11.90;;;6.13;;
51927;SDS011;37953;52.806;18.270;2022-07-22T12:19:27;13.25;;;6.00;;
51927;SDS011;37953;52.806;18.270;2022-07-22T12:22:19;10.32;;;5.45;;
51927;SDS011;37953;52.806;18.270;2022-07-22T12:24:46;10.07;;;5.40;;
51927;SDS011;37953;52.806;18.270;2022-07-22T12:27:32;9.55;;;5.05;;
51927;SDS011;37953;52.806;18.270;2022-07-22T12:29:58;67.20;;;18.90;;
51927;SDS011;37953;52.806;18.270;2022-07-22T12:32:25;24.77;;;8.38;;
51927;SDS011;37953;52.806;18.270;2022-07-22T12:34:56;12.20;;;5.85;;
51927;SDS011;37953;52.806;18.270;2022-07-22T12:40:39;9.98;;;5.85;;
51927;SDS011;37953;52.806;18.270;2022-07-22T12:43:06;8.48;;;5.13;;
51927;SDS011;37953;52.806;18.270;2022-07-22T12:45:34;11.43;;;4.90;;
51927;SDS011;37953;52.806;18.270;2022-07-22T12:48:09;7.93;;;5.07;;
51927;SDS011;37953;52.806;18.270;2022-07-22T12:50:38;6.00;;;4.47;;
51927;SDS011;37953;52.806;18.270;2022-07-22T12:53:24;8.05;;;4.95;;
51927;SDS011;37953;52.806;18.270;2022-07-22T12:55:59;10.05;;;5.30;;
51927;SDS011;37953;52.806;18.270;2022-07-22T12:58:27;6.40;;;4.70;;
51927;SDS011;37953;52.806;18.270;2022-07-22T13:01:00;7.75;;;4.78;;
51927;SDS011;37953;52.806;18.270;2022-07-22T13:03:27;7.18;;;4.60;;
51927;SDS011;37953;52.806;18.270;2022-07-22T13:05:54;6.25;;;4.55;;
51927;SDS011;37953;52.806;18.270;2022-07-22T13:08:22;6.15;;;4.53;;
51927;SDS011;37953;52.806;18.270;2022-07-22T13:10:49;5.47;;;4.38;;
51927;SDS011;37953;52.806;18.270;2022-07-22T13:13:16;8.23;;;4.68;;
51927;SDS011;37953;52.806;18.270;2022-07-22T13:15:46;6.20;;;4.75;;
51927;SDS011;37953;52.806;18.270;2022-07-22T13:18:12;5.97;;;4.47;;
51927;SDS011;37953;52.806;18.270;2022-07-22T13:20:39;6.70;;;4.38;;
51927;SDS011;37953;52.806;18.270;2022-07-22T13:23:05;6.72;;;4.63;;
51927;SDS011;37953;52.806;18.270;2022-07-22T13:25:32;7.75;;;5.00;;
51927;SDS011;37953;52.806;18.270;2022-07-22T13:27:59;9.05;;;4.82;;
51927;SDS011;37953;52.806;18.270;2022-07-22T13:30:27;6.05;;;4.40;;
51927;SDS011;37953;52.806;18.270;2022-07-22T13:32:53;10.50;;;4.63;;
51927;SDS011;37953;52.806;18.270;2022-07-22T13:35:19;8.73;;;5.07;;
51927;SDS011;37953;52.806;18.270;2022-07-22T13:37:45;8.95;;;4.65;;
51927;SDS011;37953;52.806;18.270;2022-07-22T13:40:11;5.95;;;4.60;;
51927;SDS011;37953;52.806;18.270;2022-07-22T13:42:38;8.90;;;5.13;;
51927;SDS011;37953;52.806;18.270;2022-07-22T13:45:04;10.10;;;4.78;;
51927;SDS011;37953;52.806;18.270;2022-07-22T13:47:31;7.60;;;4.88;;
51927;SDS011;37953;52.806;18.270;2022-07-22T13:50:00;8.90;;;4.85;;
51927;SDS011;37953;52.806;18.270;2022-07-22T13:52:26;6.95;;;4.35;;
51927;SDS011;37953;52.806;18.270;2022-07-22T13:54:52;10.45;;;5.10;;
51927;SDS011;37953;52.806;18.270;2022-07-22T13:57:18;6.10;;;4.57;;
51927;SDS011;37953;52.806;18.270;2022-07-22T13:59:44;6.07;;;4.82;;
51927;SDS011;37953;52.806;18.270;2022-07-22T14:02:11;7.55;;;5.03;;
51927;SDS011;37953;52.806;18.270;2022-07-22T14:04:37;6.03;;;5.07;;
51927;SDS011;37953;52.806;18.270;2022-07-22T14:07:03;6.10;;;4.72;;
51927;SDS011;37953;52.806;18.270;2022-07-22T14:09:29;6.97;;;4.78;;
51927;SDS011;37953;52.806;18.270;2022-07-22T14:11:55;7.32;;;5.10;;
51927;SDS011;37953;52.806;18.270;2022-07-22T14:14:21;7.60;;;5.00;;
51927;SDS011;37953;52.806;18.270;2022-07-22T14:16:48;6.70;;;4.90;;
51927;SDS011;37953;52.806;18.270;2022-07-22T14:19:14;7.70;;;4.60;;
51927;SDS011;37953;52.806;18.270;2022-07-22T14:21:46;5.85;;;4.78;;
51927;SDS011;37953;52.806;18.270;2022-07-22T14:24:18;6.32;;;4.68;;
51927;SDS011;37953;52.806;18.270;2022-07-22T14:26:43;7.25;;;4.93;;
51927;SDS011;37953;52.806;18.270;2022-07-22T14:29:09;7.72;;;4.95;;
51927;SDS011;37953;52.806;18.270;2022-07-22T14:31:35;7.30;;;4.95;;
51927;SDS011;37953;52.806;18.270;2022-07-22T14:34:01;6.53;;;4.60;;
51927;SDS011;37953;52.806;18.270;2022-07-22T14:36:27;5.10;;;4.60;;
51927;SDS011;37953;52.806;18.270;2022-07-22T14:38:53;7.80;;;5.00;;
51927;SDS011;37953;52.806;18.270;2022-07-22T14:41:20;9.73;;;4.90;;
51927;SDS011;37953;52.806;18.270;2022-07-22T14:43:46;6.25;;;4.55;;
51927;SDS011;37953;52.806;18.270;2022-07-22T14:46:12;6.75;;;5.38;;
51927;SDS011;37953;52.806;18.270;2022-07-22T14:48:38;6.10;;;5.15;;
51927;SDS011;37953;52.806;18.270;2022-07-22T14:51:05;5.97;;;4.90;;
51927;SDS011;37953;52.806;18.270;2022-07-22T14:53:31;7.93;;;5.05;;
51927;SDS011;37953;52.806;18.270;2022-07-22T14:55:57;6.70;;;4.90;;
51927;SDS011;37953;52.806;18.270;2022-07-22T14:58:23;6.75;;;5.20;;
51927;SDS011;37953;52.806;18.270;2022-07-22T15:00:50;7.25;;;5.10;;
51927;SDS011;37953;52.806;18.270;2022-07-22T15:03:16;7.10;;;5.05;;
51927;SDS011;37953;52.806;18.270;2022-07-22T15:05:42;5.70;;;4.50;;
51927;SDS011;37953;52.806;18.270;2022-07-22T15:08:08;6.20;;;4.53;;